Time;durP1;ratioP1;P1;durP2;ratioP2;P2;SDS_P1;SDS_P2;PMS_P1;PMS_P2;Temp;Humidity;BMP_temperature;BMP_pressure;BME280_temperature;BME280_humidity;BME280_pressure;Samples;Min_cycle;Max_cycle;Signal;HPM_P1;HPM_P2
2024/01/28 00:00:05;;;;;;;0.00;0.00;;;5.10;70.50;;;;;;5031420;28;20271;-37
2024/01/28 00:02:34;;;;;;;0.00;0.00;;;5.10;70.50;;;;;;5031316;28;20311;-35
2024/01/28 00:05:03;;;;;;;0.00;0.00;;;5.10;70.50;;;;;;5032465;28;20197;-37
2024/01/28 00:07:33;;;;;;;0.00;0.00;;;5.10;70.50;;;;;;5032340;28;20211;-36
2024/01/28 00:10:04;;;;;;;0.00;0.00;;;5.10;70.50;;;;;;5032962;28;20204;-37
2024/01/28 00:12:31;;;;;;;0.00;0.00;;;5.10;70.50;;;;;;5020071;28;20227;-35
2024/01/28 00:14:59;;;;;;;0.00;0.00;;;5.00;70.40;;;;;;5038371;28;20380;-36
2024/01/28 00:17:32;;;;;;;0.00;0.00;;;5.10;70.50;;;;;;5036959;28;20626;-37
2024/01/28 00:20:00;;;;;;;0.00;0.00;;;5.10;70.50;;;;;;5039199;28;20204;-36
2024/01/28 00:22:29;;;;;;;0.00;0.00;;;5.00;70.50;;;;;;5029290;28;20823;-36
2024/01/28 00:24:58;;;;;;;0.00;0.00;;;5.10;70.50;;;;;;5028322;28;20628;-36
2024/01/28 00:27:25;;;;;;;0.00;0.00;;;5.00;70.50;;;;;;5037034;28;20557;-37
2024/01/28 00:29:56;;;;;;;0.00;0.00;;;5.10;70.50;;;;;;5032951;28;20239;-36
2024/01/28 00:32:28;;;;;;;0.00;0.00;;;5.10;70.50;;;;;;5014907;28;20209;-35
2024/01/28 00:34:57;;;;;;;0.00;0.00;;;5.10;70.50;;;;;;5034799;28;20231;-35
2024/01/28 00:37:24;;;;;;;0.00;0.00;;;5.00;70.40;;;;;;5018207;28;20661;-35
2024/01/28 00:39:52;;;;;;;0.00;0.00;;;5.00;70.50;;;;;;5029501;28;20580;-36
2024/01/28 00:42:19;;;;;;;0.00;0.00;;;5.00;70.50;;;;;;5039403;28;20205;-35
2024/01/28 00:44:48;;;;;;;0.00;0.00;;;5.00;70.40;;;;;;5039197;28;20196;-37
2024/01/28 00:47:18;;;;;;;0.00;0.00;;;5.00;70.50;;;;;;5034248;28;20229;-36
2024/01/28 00:49:47;;;;;;;0.00;0.00;;;5.00;70.40;;;;;;5031182;28;20201;-37
2024/01/28 00:52:18;;;;;;;0.00;0.00;;;5.00;70.40;;;;;;5037909;28;20259;-35
2024/01/28 00:54:49;;;;;;;0.00;0.00;;;5.00;70.40;;;;;;5040052;28;20697;-36
2024/01/28 00:57:16;;;;;;;0.00;0.00;;;5.00;70.50;;;;;;5031246;28;20214;-36
2024/01/28 00:59:51;;;;;;;0.00;0.00;;;5.00;70.50;;;;;;5031142;28;20261;-36
2024/01/28 01:02:20;;;;;;;0.00;0.00;;;5.00;70.50;;;;;;5023925;28;20209;-35
2024/01/28 01:04:50;;;;;;;0.00;0.00;;;5.00;70.40;;;;;;5026065;28;20213;-35
2024/01/28 01:07:17;;;;;;;0.00;0.00;;;5.00;70.40;;;;;;5030898;28;20229;-35
2024/01/28 01:09:45;;;;;;;0.00;0.00;;;5.00;70.40;;;;;;5032783;28;20533;-37
2024/01/28 01:12:12;;;;;;;0.00;0.00;;;5.00;70.40;;;;;;5032273;28;20197;-37
2024/01/28 01:14:44;;;;;;;0.00;0.00;;;5.00;70.40;;;;;;5032325;28;20198;-35
2024/01/28 01:17:16;;;;;;;0.00;0.00;;;5.00;70.50;;;;;;5041105;28;20200;-36
2024/01/28 01:19:45;;;;;;;0.00;0.00;;;5.00;70.40;;;;;;5034686;28;20212;-36
2024/01/28 01:22:13;;;;;;;0.00;0.00;;;4.90;70.40;;;;;;5031378;28;20200;-40
2024/01/28 01:24:41;;;;;;;0.00;0.00;;;5.00;70.40;;;;;;5035972;28;20196;-37
2024/01/28 01:27:08;;;;;;;0.00;0.00;;;4.90;70.50;;;;;;5019991;28;20220;-36
2024/01/28 01:29:38;;;;;;;0.00;0.00;;;5.00;70.40;;;;;;5032034;28;20235;-36
2024/01/28 01:32:10;;;;;;;0.00;0.00;;;4.90;70.40;;;;;;5029028;28;20680;-36
2024/01/28 01:34:37;;;;;;;0.00;0.00;;;4.90;70.30;;;;;;5036314;28;20240;-37
2024/01/28 01:37:08;;;;;;;0.00;0.00;;;4.90;70.30;;;;;;5027404;28;20220;-34
2024/01/28 01:39:35;;;;;;;0.00;0.00;;;4.90;70.30;;;;;;5032312;28;20279;-35
2024/01/28 01:42:04;;;;;;;0.00;0.00;;;4.90;70.30;;;;;;5028329;28;20282;-35
2024/01/28 01:44:34;;;;;;;0.00;0.00;;;4.90;70.30;;;;;;5033825;28;20216;-35
2024/01/28 01:47:04;;;;;;;0.00;0.00;;;4.80;70.30;;;;;;5012266;28;20220;-35
2024/01/28 01:49:32;;;;;;;0.00;0.00;;;4.80;70.30;;;;;;5027508;28;20201;-37
2024/01/28 01:52:08;;;;;;;0.00;0.00;;;4.80;70.30;;;;;;5036202;28;20207;-35
2024/01/28 01:54:36;;;;;;;0.00;0.00;;;4.80;70.20;;;;;;5027500;28;20667;-35
2024/01/28 01:57:03;;;;;;;0.00;0.00;;;4.80;70.30;;;;;;5024153;28;20646;-35
2024/01/28 01:59:33;;;;;;;0.00;0.00;;;4.80;70.30;;;;;;5032530;28;20314;-35
2024/01/28 02:02:05;;;;;;;0.00;0.00;;;4.80;70.30;;;;;;5028474;28;20217;-35
2024/01/28 02:04:38;;;;;;;0.00;0.00;;;4.80;70.30;;;;;;5035442;28;20207;-36
2024/01/28 02:07:06;;;;;;;0.00;0.00;;;4.80;70.30;;;;;;5034907;28;20226;-36
2024/01/28 02:09:34;;;;;;;0.00;0.00;;;4.70;70.20;;;;;;5033557;28;20204;-35
2024/01/28 02:12:02;;;;;;;0.00;0.00;;;4.70;70.20;;;;;;5034531;28;20204;-37
2024/01/28 02:14:31;;;;;;;0.00;0.00;;;4.70;70.20;;;;;;5032887;28;20208;-36
2024/01/28 02:16:59;;;;;;;0.00;0.00;;;4.70;70.20;;;;;;5035411;28;20227;-36
2024/01/28 02:19:32;;;;;;;0.00;0.00;;;4.70;70.20;;;;;;5018785;28;20207;-36
2024/01/28 02:22:01;;;;;;;0.00;0.00;;;4.70;70.30;;;;;;5024510;28;20212;-36
2024/01/28 02:24:28;;;;;;;0.00;0.00;;;4.70;70.30;;;;;;5034871;28;20568;-37
2024/01/28 02:26:58;;;;;;;0.00;0.00;;;4.70;70.30;;;;;;5043113;28;20220;-36
2024/01/28 02:29:28;;;;;;;0.00;0.00;;;4.70;70.30;;;;;;5038929;28;20201;-36
2024/01/28 02:31:55;;;;;;;0.00;0.00;;;4.70;70.30;;;;;;5041714;28;20196;-36
2024/01/28 02:34:25;;;;;;;0.00;0.00;;;4.70;70.30;;;;;;5032565;28;20228;-35
2024/01/28 02:36:52;;;;;;;0.00;0.00;;;4.70;70.30;;;;;;5034859;28;20296;-36
2024/01/28 02:39:20;;;;;;;0.00;0.00;;;4.70;70.30;;;;;;5043227;28;20254;-38
2024/01/28 02:41:49;;;;;;;0.00;0.00;;;4.70;70.30;;;;;;5038623;28;20208;-35
2024/01/28 02:44:18;;;;;;;0.00;0.00;;;4.70;70.30;;;;;;5038093;28;20407;-35
2024/01/28 02:46:46;;;;;;;0.00;0.00;;;4.70;70.30;;;;;;5031157;28;20213;-36
2024/01/28 02:49:13;;;;;;;0.00;0.00;;;4.70;70.30;;;;;;5031947;28;20572;-36
2024/01/28 02:51:45;;;;;;;0.00;0.00;;;4.60;70.20;;;;;;5018763;28;20283;-35
2024/01/28 02:54:17;;;;;;;0.00;0.00;;;4.60;70.30;;;;;;5026025;28;20424;-36
2024/01/28 02:56:49;;;;;;;0.00;0.00;;;4.60;70.20;;;;;;5040137;28;20739;-36
2024/01/28 02:59:16;;;;;;;0.00;0.00;;;4.60;70.20;;;;;;5038963;28;20216;-35
2024/01/28 03:01:49;;;;;;;0.00;0.00;;;4.60;70.20;;;;;;5049496;28;20200;-35
2024/01/28 03:04:19;;;;;;;0.00;0.00;;;4.60;70.30;;;;;;5031074;28;20227;-35
2024/01/28 03:06:46;;;;;;;0.00;0.00;;;4.60;70.30;;;;;;5045592;28;20274;-35
2024/01/28 03:09:18;;;;;;;0.00;0.00;;;4.60;70.30;;;;;;5036595;28;20334;-37
2024/01/28 03:11:51;;;;;;;0.00;0.00;;;4.60;70.30;;;;;;5027964;28;20216;-35
2024/01/28 03:14:20;;;;;;;0.00;0.00;;;4.60;70.30;;;;;;5031584;28;20308;-36
2024/01/28 03:16:50;;;;;;;0.00;0.00;;;4.60;70.30;;;;;;5018405;28;20303;-37
2024/01/28 03:19:19;;;;;;;0.00;0.00;;;4.60;70.30;;;;;;5046138;28;20196;-37
2024/01/28 03:21:51;;;;;;;0.00;0.00;;;4.60;70.30;;;;;;5026655;28;20750;-35
2024/01/28 03:24:26;;;;;;;0.00;0.00;;;4.50;70.20;;;;;;5040490;28;20262;-36
2024/01/28 03:26:53;;;;;;;0.00;0.00;;;4.50;70.10;;;;;;5041184;28;20220;-35
2024/01/28 03:29:25;;;;;;;0.00;0.00;;;4.50;70.10;;;;;;5041920;28;20235;-35
2024/01/28 03:31:57;;;;;;;0.00;0.00;;;4.50;70.10;;;;;;5041699;28;20217;-36
2024/01/28 03:34:27;;;;;;;0.00;0.00;;;4.50;70.10;;;;;;5034885;28;20240;-36
2024/01/28 03:36:57;;;;;;;0.00;0.00;;;4.50;70.10;;;;;;5035161;28;20215;-35
2024/01/28 03:39:29;;;;;;;0.00;0.00;;;4.40;70.10;;;;;;5036293;28;20209;-35
2024/01/28 03:41:56;;;;;;;0.00;0.00;;;4.50;70.20;;;;;;5034301;28;20228;-35
2024/01/28 03:44:26;;;;;;;0.00;0.00;;;4.40;70.10;;;;;;5028087;28;20213;-36
2024/01/28 03:46:55;;;;;;;0.00;0.00;;;4.40;70.10;;;;;;5022945;28;20223;-34
2024/01/28 03:49:23;;;;;;;0.00;0.00;;;4.40;70.10;;;;;;5027418;28;20213;-36
2024/01/28 03:51:52;;;;;;;0.00;0.00;;;4.40;70.10;;;;;;5034502;28;20224;-34
2024/01/28 03:54:21;;;;;;;0.00;0.00;;;4.40;70.20;;;;;;5033509;28;20310;-35
2024/01/28 03:56:51;;;;;;;0.00;0.00;;;4.40;70.90;;;;;;5036370;28;20220;-36
2024/01/28 03:59:21;;;;;;;0.00;0.00;;;4.30;70.10;;;;;;5035344;28;20251;-36
2024/01/28 04:01:50;;;;;;;0.00;0.00;;;4.30;70.10;;;;;;5025432;28;20205;-35
2024/01/28 04:04:20;;;;;;;0.00;0.00;;;4.30;70.10;;;;;;5026775;28;20201;-35
2024/01/28 04:06:47;;;;;;;0.00;0.00;;;4.30;70.10;;;;;;5029230;28;20676;-37
2024/01/28 04:09:17;;;;;;;0.00;0.00;;;4.30;70.90;;;;;;5037050;28;20212;-36
2024/01/28 04:11:47;;;;;;;0.00;0.00;;;4.30;70.10;;;;;;5019748;28;20209;-36
2024/01/28 04:14:18;;;;;;;0.00;0.00;;;4.30;70.20;;;;;;5033474;28;20197;-36
2024/01/28 04:16:46;;;;;;;0.00;0.00;;;4.30;70.20;;;;;;5039551;28;20209;-38
2024/01/28 04:19:15;;;;;;;0.00;0.00;;;4.30;70.20;;;;;;5037456;28;20208;-35
2024/01/28 04:21:42;;;;;;;0.00;0.00;;;4.30;70.30;;;;;;5034906;28;20215;-36
2024/01/28 04:24:14;;;;;;;0.00;0.00;;;4.20;70.30;;;;;;5033113;28;20196;-35
2024/01/28 04:26:41;;;;;;;0.00;0.00;;;4.30;70.30;;;;;;5037503;28;20220;-36
2024/01/28 04:29:08;;;;;;;0.00;0.00;;;4.30;70.30;;;;;;5034759;28;20196;-35
2024/01/28 04:31:43;;;;;;;0.00;0.00;;;4.20;70.20;;;;;;5035007;28;20258;-36
2024/01/28 04:34:13;;;;;;;0.00;0.00;;;4.30;70.30;;;;;;5025138;28;20286;-35
2024/01/28 04:36:40;;;;;;;0.00;0.00;;;4.30;70.30;;;;;;5033402;28;20228;-35
2024/01/28 04:39:10;;;;;;;0.00;0.00;;;4.30;70.20;;;;;;5035404;28;20201;-35
2024/01/28 04:41:40;;;;;;;0.00;0.00;;;4.30;70.30;;;;;;5028251;28;20757;-36
2024/01/28 04:44:08;;;;;;;0.00;0.00;;;4.30;70.30;;;;;;5033884;28;20212;-35
2024/01/28 04:46:35;;;;;;;0.00;0.00;;;4.30;70.30;;;;;;5027348;28;20221;-35
2024/01/28 04:49:03;;;;;;;0.00;0.00;;;4.30;70.30;;;;;;5027188;28;20200;-35
2024/01/28 04:51:30;;;;;;;0.00;0.00;;;4.30;70.20;;;;;;5027912;28;20303;-36
2024/01/28 04:54:00;;;;;;;0.00;0.00;;;4.30;70.30;;;;;;5037498;28;20215;-37
2024/01/28 04:56:31;;;;;;;0.00;0.00;;;4.30;70.30;;;;;;5040445;28;20211;-37
2024/01/28 04:58:58;;;;;;;0.00;0.00;;;4.30;70.30;;;;;;5039018;28;20266;-37
2024/01/28 05:01:25;;;;;;;0.00;0.00;;;4.30;70.30;;;;;;5031367;28;20316;-36
2024/01/28 05:03:57;;;;;;;0.00;0.00;;;4.30;70.40;;;;;;5040135;28;20208;-37
2024/01/28 05:06:35;;;;;;;0.00;0.00;;;4.30;70.30;;;;;;5040994;28;20694;-36
2024/01/28 05:09:06;;;;;;;0.00;0.00;;;4.30;70.30;;;;;;5033380;28;20201;-37
2024/01/28 05:11:34;;;;;;;0.00;0.00;;;4.30;70.20;;;;;;5036661;28;20307;-36
2024/01/28 05:14:02;;;;;;;0.00;0.00;;;4.30;70.30;;;;;;5034786;28;20609;-37
2024/01/28 05:16:30;;;;;;;0.00;0.00;;;4.30;70.30;;;;;;5038149;28;20656;-35
2024/01/28 05:19:01;;;;;;;0.00;0.00;;;4.30;70.20;;;;;;5037295;28;20456;-37
2024/01/28 05:21:29;;;;;;;0.00;0.00;;;4.30;70.30;;;;;;5034334;28;20204;-36
2024/01/28 05:23:56;;;;;;;0.00;0.00;;;4.30;70.20;;;;;;5034785;28;20611;-35
2024/01/28 05:26:26;;;;;;;0.00;0.00;;;4.30;70.20;;;;;;5023986;28;20655;-36
2024/01/28 05:29:05;;;;;;;0.00;0.00;;;4.30;70.20;;;;;;5037635;28;20674;-35
2024/01/28 05:31:32;;;;;;;0.00;0.00;;;4.30;70.20;;;;;;5025642;28;20303;-35
2024/01/28 05:34:01;;;;;;;0.00;0.00;;;4.30;70.30;;;;;;5032086;28;21123;-35
2024/01/28 05:36:31;;;;;;;0.00;0.00;;;4.30;70.30;;;;;;5028260;28;20213;-36
2024/01/28 05:38:59;;;;;;;0.00;0.00;;;4.30;70.20;;;;;;5027375;28;20232;-36
2024/01/28 05:41:28;;;;;;;0.00;0.00;;;4.30;70.30;;;;;;5034100;28;20303;-35
2024/01/28 05:43:55;;;;;;;0.00;0.00;;;4.30;70.30;;;;;;5028313;28;20209;-35
2024/01/28 05:46:25;;;;;;;0.00;0.00;;;4.30;70.20;;;;;;5038386;28;20216;-38
2024/01/28 05:48:55;;;;;;;0.00;0.00;;;4.30;70.20;;;;;;5039401;28;20200;-37
2024/01/28 05:51:27;;;;;;;0.00;0.00;;;4.30;70.20;;;;;;5028395;28;20521;-36
2024/01/28 05:53:57;;;;;;;0.00;0.00;;;4.30;70.30;;;;;;5033996;28;20231;-35
2024/01/28 05:56:26;;;;;;;0.00;0.00;;;4.30;70.20;;;;;;5034396;28;20215;-35
2024/01/28 05:58:55;;;;;;;0.00;0.00;;;4.30;70.20;;;;;;5040379;28;20989;-36
2024/01/28 06:01:25;;;;;;;0.00;0.00;;;4.30;70.20;;;;;;5022600;28;20259;-35
2024/01/28 06:03:54;;;;;;;0.00;0.00;;;4.30;70.20;;;;;;5044306;28;20225;-36
2024/01/28 06:06:22;;;;;;;0.00;0.00;;;4.20;70.20;;;;;;5037866;28;20219;-36
2024/01/28 06:08:49;;;;;;;0.00;0.00;;;4.30;70.20;;;;;;5035389;28;20273;-36
2024/01/28 06:11:17;;;;;;;0.00;0.00;;;4.20;70.20;;;;;;5035162;28;20797;-35
2024/01/28 06:13:46;;;;;;;0.00;0.00;;;4.20;70.20;;;;;;5034775;28;20628;-35
2024/01/28 06:16:13;;;;;;;0.00;0.00;;;4.20;70.20;;;;;;5037288;28;20280;-36
2024/01/28 06:18:46;;;;;;;0.00;0.00;;;4.20;70.20;;;;;;5037181;28;20212;-35
2024/01/28 06:21:13;;;;;;;0.00;0.00;;;4.20;70.10;;;;;;5018861;28;20652;-35
2024/01/28 06:23:46;;;;;;;0.00;0.00;;;4.20;70.10;;;;;;5038510;28;20208;-35
2024/01/28 06:26:17;;;;;;;0.00;0.00;;;4.20;70.20;;;;;;5034000;28;20197;-35
2024/01/28 06:28:50;;;;;;;0.00;0.00;;;4.20;70.20;;;;;;5035809;28;20327;-35
2024/01/28 06:31:19;;;;;;;0.00;0.00;;;4.20;70.20;;;;;;5029406;28;20243;-36
2024/01/28 06:33:46;;;;;;;0.00;0.00;;;4.20;70.20;;;;;;5032575;28;20695;-36
2024/01/28 06:36:22;;;;;;;0.00;0.00;;;4.20;70.10;;;;;;5014537;28;20320;-37
2024/01/28 06:38:54;;;;;;;0.00;0.00;;;4.20;70.20;;;;;;5032243;28;20210;-36
2024/01/28 06:41:21;;;;;;;0.00;0.00;;;4.20;70.20;;;;;;5029023;28;20223;-35
2024/01/28 06:43:49;;;;;;;0.00;0.00;;;4.20;70.20;;;;;;5030143;28;20216;-36
2024/01/28 06:46:20;;;;;;;0.00;0.00;;;4.20;70.20;;;;;;5032206;28;20208;-36
2024/01/28 06:48:48;;;;;;;0.00;0.00;;;4.20;70.20;;;;;;5036759;28;20239;-36
2024/01/28 06:51:15;;;;;;;0.00;0.00;;;4.10;70.10;;;;;;5041548;28;20296;-36
2024/01/28 06:53:48;;;;;;;0.00;0.00;;;4.20;70.20;;;;;;5045216;28;20295;-36
2024/01/28 06:56:15;;;;;;;0.00;0.00;;;4.10;70.10;;;;;;5038857;28;20226;-37
2024/01/28 06:58:47;;;;;;;0.00;0.00;;;4.10;70.10;;;;;;5038017;28;20300;-39
2024/01/28 07:01:17;;;;;;;0.00;0.00;;;4.10;70.20;;;;;;5041531;28;20211;-36
2024/01/28 07:03:47;;;;;;;0.00;0.00;;;4.10;70.10;;;;;;5038160;28;20240;-37
2024/01/28 07:06:16;;;;;;;0.00;0.00;;;4.10;70.10;;;;;;5036912;28;20205;-35
2024/01/28 07:08:46;;;;;;;0.00;0.00;;;4.10;70.10;;;;;;5035361;28;20228;-36
2024/01/28 07:11:13;;;;;;;0.00;0.00;;;4.10;70.10;;;;;;5034834;28;20241;-36
2024/01/28 07:13:44;;;;;;;0.00;0.00;;;4.10;70.50;;;;;;5036396;28;20204;-36
2024/01/28 07:16:16;;;;;;;0.00;0.00;;;4.10;70.10;;;;;;5034195;28;20193;-36
2024/01/28 07:18:45;;;;;;;0.00;0.00;;;4.10;70.10;;;;;;5040634;28;20219;-36
2024/01/28 07:21:15;;;;;;;0.00;0.00;;;4.10;70.20;;;;;;5037667;28;20208;-35
2024/01/28 07:23:43;;;;;;;0.00;0.00;;;4.00;70.10;;;;;;5037015;28;20305;-34
2024/01/28 07:26:10;;;;;;;0.00;0.00;;;4.00;70.10;;;;;;5038002;28;20698;-35
2024/01/28 07:28:44;;;;;;;0.00;0.00;;;4.00;70.10;;;;;;5042662;28;20331;-35
2024/01/28 07:31:15;;;;;;;0.00;0.00;;;4.10;70.20;;;;;;5034267;28;20196;-36
2024/01/28 07:33:44;;;;;;;0.00;0.00;;;4.00;70.10;;;;;;5043603;28;20568;-36
2024/01/28 07:36:15;;;;;;;0.00;0.00;;;4.00;70.10;;;;;;5035252;28;20331;-36
2024/01/28 07:38:43;;;;;;;0.00;0.00;;;4.00;70.10;;;;;;5032917;28;20217;-36
2024/01/28 07:41:16;;;;;;;0.00;0.00;;;4.00;70.10;;;;;;5034495;28;20709;-35
2024/01/28 07:43:43;;;;;;;0.00;0.00;;;4.00;70.10;;;;;;5037611;28;20614;-36
2024/01/28 07:46:13;;;;;;;0.00;0.00;;;4.00;70.10;;;;;;5036049;28;20635;-36
2024/01/28 07:48:42;;;;;;;0.00;0.00;;;4.10;70.20;;;;;;5037467;28;20266;-35
2024/01/28 07:51:14;;;;;;;0.00;0.00;;;4.00;70.10;;;;;;5040447;28;20302;-36
2024/01/28 07:53:41;;;;;;;0.00;0.00;;;4.00;70.20;;;;;;5038434;28;20219;-35
2024/01/28 07:56:18;;;;;;;0.00;0.00;;;4.10;70.20;;;;;;5042299;28;20212;-35
2024/01/28 07:58:45;;;;;;;0.00;0.00;;;4.10;70.20;;;;;;5033846;28;20698;-36
2024/01/28 08:01:15;;;;;;;0.00;0.00;;;4.00;70.20;;;;;;5032443;28;20294;-35
2024/01/28 08:03:42;;;;;;;0.00;0.00;;;4.10;70.20;;;;;;5034987;28;20209;-35
2024/01/28 08:06:12;;;;;;;0.00;0.00;;;4.10;70.30;;;;;;5026737;28;20219;-35
2024/01/28 08:08:39;;;;;;;0.00;0.00;;;4.10;70.30;;;;;;5032858;28;20209;-36
2024/01/28 08:11:09;;;;;;;0.00;0.00;;;4.10;70.30;;;;;;5033258;28;20229;-37
2024/01/28 08:13:36;;;;;;;0.00;0.00;;;4.10;70.30;;;;;;5040015;28;20279;-36
2024/01/28 08:16:09;;;;;;;0.00;0.00;;;4.10;70.30;;;;;;5030132;28;20306;-36
2024/01/28 08:18:41;;;;;;;0.00;0.00;;;4.10;70.30;;;;;;5030780;28;20208;-36
2024/01/28 08:21:08;;;;;;;0.00;0.00;;;4.10;70.30;;;;;;5040179;28;20249;-37
2024/01/28 08:23:37;;;;;;;0.00;0.00;;;4.20;70.30;;;;;;5035610;28;20216;-35
2024/01/28 08:26:08;;;;;;;0.00;0.00;;;4.20;70.40;;;;;;5035099;28;20209;-34
2024/01/28 08:28:37;;;;;;;0.00;0.00;;;4.20;70.40;;;;;;5034320;28;20691;-35
2024/01/28 08:31:09;;;;;;;0.00;0.00;;;4.20;70.40;;;;;;5034738;28;20207;-36
2024/01/28 08:33:36;;;;;;;0.00;0.00;;;4.20;71.20;;;;;;5039245;28;20212;-34
2024/01/28 08:36:04;;;;;;;0.00;0.00;;;4.30;70.50;;;;;;5037597;28;20239;-35
2024/01/28 08:38:36;;;;;;;0.00;0.00;;;4.30;70.50;;;;;;5036664;28;20225;-35
2024/01/28 08:41:07;;;;;;;0.00;0.00;;;4.30;70.40;;;;;;5035007;28;20208;-35
2024/01/28 08:43:40;;;;;;;0.00;0.00;;;4.30;70.50;;;;;;5029896;28;20205;-35
2024/01/28 08:46:09;;;;;;;0.00;0.00;;;4.40;70.60;;;;;;5038178;28;20216;-35
2024/01/28 08:48:37;;;;;;;0.00;0.00;;;4.40;70.60;;;;;;5036475;28;20217;-35
2024/01/28 08:51:06;;;;;;;0.00;0.00;;;4.40;70.60;;;;;;5033455;28;20286;-36
2024/01/28 08:53:33;;;;;;;0.00;0.00;;;4.40;70.60;;;;;;5039751;28;20194;-35
2024/01/28 08:56:01;;;;;;;0.00;0.00;;;4.40;70.60;;;;;;5031200;28;20209;-35
2024/01/28 08:58:31;;;;;;;0.00;0.00;;;4.50;70.60;;;;;;5033359;28;20573;-35
2024/01/28 09:01:00;;;;;;;0.00;0.00;;;4.50;70.70;;;;;;5031789;28;20212;-34
2024/01/28 09:03:32;;;;;;;0.00;0.00;;;4.50;70.60;;;;;;5035811;28;20212;-36
2024/01/28 09:06:02;;;;;;;0.00;0.00;;;4.60;70.70;;;;;;5032748;28;20201;-36
2024/01/28 09:08:37;;;;;;;0.00;0.00;;;4.60;70.70;;;;;;5036382;28;20213;-35
2024/01/28 09:11:05;;;;;;;0.00;0.00;;;4.60;70.70;;;;;;5036569;28;20203;-35
2024/01/28 09:13:34;;;;;;;0.00;0.00;;;4.70;70.70;;;;;;5038508;28;20225;-35
2024/01/28 09:16:01;;;;;;;0.00;0.00;;;4.70;70.80;;;;;;5036233;28;20204;-35
2024/01/28 09:18:29;;;;;;;0.00;0.00;;;4.80;70.80;;;;;;5034338;28;20219;-35
2024/01/28 09:20:56;;;;;;;0.00;0.00;;;4.80;70.80;;;;;;5030853;28;20640;-38
2024/01/28 09:23:26;;;;;;;0.00;0.00;;;4.80;70.80;;;;;;5035878;28;20208;-36
2024/01/28 09:25:55;;;;;;;0.00;0.00;;;4.90;70.80;;;;;;5016966;28;20203;-38
2024/01/28 09:28:23;;;;;;;0.00;0.00;;;4.90;70.80;;;;;;5033971;28;20224;-39
2024/01/28 09:30:52;;;;;;;0.00;0.00;;;4.90;70.90;;;;;;5034171;28;20311;-36
2024/01/28 09:33:22;;;;;;;0.00;0.00;;;5.00;70.90;;;;;;5042788;28;20690;-37
2024/01/28 09:35:52;;;;;;;0.00;0.00;;;5.00;71.00;;;;;;5034161;28;20244;-36
2024/01/28 09:38:19;;;;;;;0.00;0.00;;;5.10;71.00;;;;;;5044665;28;20322;-36
2024/01/28 09:40:47;;;;;;;0.00;0.00;;;5.10;71.00;;;;;;5021661;28;20221;-35
2024/01/28 09:43:30;;;;;;;0.00;0.00;;;5.10;71.00;;;;;;5029615;28;20196;-35
2024/01/28 09:46:00;;;;;;;0.00;0.00;;;5.20;71.10;;;;;;5029478;28;20209;-37
2024/01/28 09:48:30;;;;;;;0.00;0.00;;;5.20;71.10;;;;;;5036549;28;20220;-37
2024/01/28 09:50:58;;;;;;;0.00;0.00;;;5.30;71.10;;;;;;5038151;28;20204;-37
2024/01/28 09:53:25;;;;;;;0.00;0.00;;;5.30;71.10;;;;;;5031274;28;20218;-38
2024/01/28 09:55:53;;;;;;;0.00;0.00;;;5.30;71.10;;;;;;5031546;28;20209;-39
2024/01/28 09:58:23;;;;;;;0.00;0.00;;;5.40;71.20;;;;;;5035497;28;20208;-40
2024/01/28 10:00:55;;;;;;;0.00;0.00;;;5.40;71.20;;;;;;5034034;28;20304;-39
2024/01/28 10:03:22;;;;;;;0.00;0.00;;;5.50;71.20;;;;;;5034156;28;20256;-39
2024/01/28 10:05:52;;;;;;;0.00;0.00;;;5.50;71.20;;;;;;5033404;28;20516;-39
2024/01/28 10:08:25;;;;;;;0.00;0.00;;;5.60;71.20;;;;;;5029569;28;20225;-39
2024/01/28 10:10:55;;;;;;;0.00;0.00;;;5.60;71.20;;;;;;5006770;28;20730;-38
2024/01/28 10:13:26;;;;;;;0.00;0.00;;;5.60;71.20;;;;;;5031984;28;20566;-39
2024/01/28 10:15:59;;;;;;;0.00;0.00;;;5.70;71.40;;;;;;5034950;28;20216;-38
2024/01/28 10:18:29;;;;;;;0.00;0.00;;;5.70;71.30;;;;;;5031133;28;20564;-41
2024/01/28 10:20:56;;;;;;;0.00;0.00;;;5.80;71.50;;;;;;5031090;28;20204;-37
2024/01/28 10:23:26;;;;;;;0.00;0.00;;;5.80;71.40;;;;;;5035054;28;20208;-36
2024/01/28 10:25:58;;;;;;;0.00;0.00;;;5.90;71.40;;;;;;5036815;28;20236;-37
2024/01/28 10:28:27;;;;;;;0.00;0.00;;;5.90;71.40;;;;;;5036532;28;20217;-36
2024/01/28 10:30:57;;;;;;;0.00;0.00;;;6.00;71.50;;;;;;4999281;28;20304;-36
2024/01/28 10:33:27;;;;;;;0.00;0.00;;;6.10;71.50;;;;;;5031864;28;20200;-36
2024/01/28 10:36:03;;;;;;;0.00;0.00;;;6.10;71.50;;;;;;5034802;28;20282;-36
2024/01/28 10:38:32;;;;;;;0.00;0.00;;;6.20;71.60;;;;;;5034957;28;20219;-36
2024/01/28 10:41:01;;;;;;;0.00;0.00;;;6.20;72.20;;;;;;5040780;28;20659;-36
2024/01/28 10:43:39;;;;;;;0.00;0.00;;;6.30;71.60;;;;;;5038393;28;20236;-36
2024/01/28 10:46:10;;;;;;;0.00;0.00;;;6.30;71.60;;;;;;5040298;28;20200;-37
2024/01/28 10:48:45;;;;;;;0.00;0.00;;;6.40;71.60;;;;;;5038849;28;20253;-36
2024/01/28 10:51:14;;;;;;;0.00;0.00;;;6.50;71.70;;;;;;5038854;28;20290;-35
2024/01/28 10:53:43;;;;;;;0.00;0.00;;;6.50;72.50;;;;;;5039739;28;20197;-36
2024/01/28 10:56:13;;;;;;;0.00;0.00;;;6.60;71.80;;;;;;5036952;28;20193;-38
2024/01/28 10:58:45;;;;;;;0.00;0.00;;;6.70;71.80;;;;;;5038634;28;20227;-35
2024/01/28 11:01:15;;;;;;;0.00;0.00;;;6.70;71.80;;;;;;5039113;28;20244;-38
2024/01/28 11:03:46;;;;;;;0.00;0.00;;;6.80;71.90;;;;;;5038911;28;20580;-37
2024/01/28 11:06:17;;;;;;;0.00;0.00;;;6.90;71.90;;;;;;5035849;28;20199;-37
2024/01/28 11:08:48;;;;;;;0.00;0.00;;;6.90;71.90;;;;;;5036101;28;20224;-36
2024/01/28 11:11:18;;;;;;;0.00;0.00;;;7.00;72.00;;;;;;5031392;28;20213;-35
2024/01/28 11:13:48;;;;;;;0.00;0.00;;;7.00;71.90;;;;;;5032642;28;20204;-35
2024/01/28 11:16:19;;;;;;;0.00;0.00;;;7.10;72.00;;;;;;5034540;28;20985;-36
2024/01/28 11:19:10;;;;;;;0.00;0.00;;;7.20;72.00;;;;;;5033869;28;20241;-37
2024/01/28 11:21:53;;;;;;;0.00;0.00;;;7.30;72.10;;;;;;5030570;28;20300;-37
2024/01/28 11:24:23;;;;;;;0.00;0.00;;;7.30;72.10;;;;;;5039394;28;20212;-35
2024/01/28 11:26:57;;;;;;;0.00;0.00;;;7.40;72.20;;;;;;5030644;28;20753;-35
2024/01/28 11:29:38;;;;;;;0.00;0.00;;;7.40;72.20;;;;;;5038921;28;20308;-37
2024/01/28 11:32:07;;;;;;;0.00;0.00;;;7.50;72.20;;;;;;5036285;28;20296;-36
2024/01/28 11:34:35;;;;;;;0.00;0.00;;;7.60;72.20;;;;;;5036221;28;20235;-37
2024/01/28 11:37:04;;;;;;;0.00;0.00;;;7.60;72.20;;;;;;5032210;28;20304;-36
2024/01/28 11:39:48;;;;;;;0.00;0.00;;;7.70;72.20;;;;;;5041341;28;20648;-38
2024/01/28 11:42:22;;;;;;;0.00;0.00;;;7.80;72.30;;;;;;5033244;28;20215;-35
2024/01/28 11:44:50;;;;;;;0.00;0.00;;;7.90;72.30;;;;;;5036804;28;20304;-37
2024/01/28 11:47:22;;;;;;;0.00;0.00;;;7.90;72.30;;;;;;5040994;28;20645;-35
2024/01/28 11:49:49;;;;;;;0.00;0.00;;;8.00;72.30;;;;;;5038035;28;20224;-38
2024/01/28 11:52:21;;;;;;;0.00;0.00;;;8.10;72.40;;;;;;5036694;28;20581;-40
2024/01/28 11:54:48;;;;;;;0.00;0.00;;;8.20;72.40;;;;;;5039244;28;20404;-37
2024/01/28 11:57:20;;;;;;;0.00;0.00;;;8.20;72.30;;;;;;5036166;28;20919;-36
2024/01/28 11:59:48;;;;;;;0.00;0.00;;;8.30;72.20;;;;;;5035498;28;20724;-36
2024/01/28 12:02:18;;;;;;;0.00;0.00;;;8.40;72.40;;;;;;5032240;28;20627;-37
2024/01/28 12:04:45;;;;;;;0.00;0.00;;;8.50;72.50;;;;;;5037756;28;20207;-37
2024/01/28 12:07:15;;;;;;;0.00;0.00;;;8.60;72.40;;;;;;5041999;28;20687;-36
2024/01/28 12:09:42;;;;;;;0.00;0.00;;;8.70;72.50;;;;;;5034323;28;20260;-35
2024/01/28 12:12:10;;;;;;;0.00;0.00;;;8.80;72.50;;;;;;5029289;28;20231;-36
2024/01/28 12:14:37;;;;;;;0.00;0.00;;;8.80;72.50;;;;;;5033054;28;20200;-39
2024/01/28 12:17:14;;;;;;;0.00;0.00;;;8.90;72.50;;;;;;5036278;28;20236;-40
2024/01/28 12:19:41;;;;;;;0.00;0.00;;;9.00;72.50;;;;;;5037715;28;20239;-40
2024/01/28 12:22:11;;;;;;;0.00;0.00;;;9.10;72.50;;;;;;5028179;28;20225;-39
2024/01/28 12:24:47;;;;;;;0.00;0.00;;;9.10;72.50;;;;;;5027052;28;20210;-40
2024/01/28 12:27:17;;;;;;;0.00;0.00;;;9.20;72.60;;;;;;5024941;28;20209;-40
2024/01/28 12:29:47;;;;;;;0.00;0.00;;;9.30;72.50;;;;;;5027699;28;20225;-40
2024/01/28 12:32:21;;;;;;;0.00;0.00;;;9.40;72.60;;;;;;5035726;28;20212;-40
2024/01/28 12:34:49;;;;;;;0.00;0.00;;;9.40;72.50;;;;;;5027921;28;20237;-42
2024/01/28 12:37:19;;;;;;;0.00;0.00;;;9.50;72.50;;;;;;5029400;28;20216;-42
2024/01/28 12:39:51;;;;;;;0.00;0.00;;;9.60;72.60;;;;;;5041099;28;20200;-36
2024/01/28 12:42:23;;;;;;;0.00;0.00;;;9.60;73.30;;;;;;5031253;28;20208;-40
2024/01/28 12:44:50;;;;;;;0.00;0.00;;;9.70;72.60;;;;;;5038993;28;20331;-40
2024/01/28 12:47:17;;;;;;;0.00;0.00;;;9.70;72.50;;;;;;5033376;28;20568;-40
2024/01/28 12:49:46;;;;;;;0.00;0.00;;;9.80;72.60;;;;;;5030364;28;20628;-41
2024/01/28 12:52:14;;;;;;;0.00;0.00;;;9.80;72.60;;;;;;5027906;28;20567;-40
2024/01/28 12:54:47;;;;;;;0.00;0.00;;;9.90;72.50;;;;;;5024891;28;20205;-40
2024/01/28 12:57:17;;;;;;;0.00;0.00;;;9.90;72.50;;;;;;5029236;28;20698;-40
2024/01/28 12:59:49;;;;;;;0.00;0.00;;;10.00;72.60;;;;;;5034041;28;20201;-41
2024/01/28 13:02:16;;;;;;;0.00;0.00;;;10.10;72.60;;;;;;5037212;28;20687;-41
2024/01/28 13:04:43;;;;;;;0.00;0.00;;;10.10;72.60;;;;;;5030802;28;20216;-41
2024/01/28 13:07:13;;;;;;;0.00;0.00;;;10.20;72.40;;;;;;5030576;28;20204;-41
2024/01/28 13:09:46;;;;;;;0.00;0.00;;;10.20;72.50;;;;;;5034393;28;20228;-41